sensor_id;sensor_type;location;lat;lon;timestamp;P1;durP1;ratioP1;P2;durP2;ratioP2
60880;SDS011;46729;43.010;24.320;2022-07-19T00:02:13;2.03;;;1.60;;
60880;SDS011;46729;43.010;24.320;2022-07-19T00:04:38;3.95;;;2.00;;
60880;SDS011;46729;43.010;24.320;2022-07-19T00:07:04;4.40;;;1.85;;
60880;SDS011;46729;43.010;24.320;2022-07-19T00:09:30;5.00;;;1.60;;
60880;SDS011;46729;43.010;24.320;2022-07-19T00:11:55;2.25;;;1.90;;
60880;SDS011;46729;43.010;24.320;2022-07-19T00:14:21;3.03;;;2.00;;
60880;SDS011;46729;43.010;24.320;2022-07-19T00:16:47;2.35;;;1.63;;
60880;SDS011;46729;43.010;24.320;2022-07-19T00:19:13;2.58;;;1.63;;
60880;SDS011;46729;43.010;24.320;2022-07-19T00:21:38;4.57;;;1.90;;
60880;SDS011;46729;43.010;24.320;2022-07-19T00:24:04;2.17;;;1.67;;
60880;SDS011;46729;43.010;24.320;2022-07-19T00:26:30;2.22;;;1.63;;
60880;SDS011;46729;43.010;24.320;2022-07-19T00:28:56;2.50;;;1.77;;
60880;SDS011;46729;43.010;24.320;2022-07-19T00:31:22;2.95;;;1.90;;
60880;SDS011;46729;43.010;24.320;2022-07-19T00:33:48;3.25;;;1.73;;
60880;SDS011;46729;43.010;24.320;2022-07-19T00:36:14;2.80;;;1.67;;
60880;SDS011;46729;43.010;24.320;2022-07-19T00:38:40;4.85;;;1.90;;
60880;SDS011;46729;43.010;24.320;2022-07-19T00:41:06;3.55;;;2.00;;
60880;SDS011;46729;43.010;24.320;2022-07-19T00:43:31;4.47;;;1.98;;
60880;SDS011;46729;43.010;24.320;2022-07-19T00:45:57;7.18;;;2.13;;
60880;SDS011;46729;43.010;24.320;2022-07-19T00:48:22;2.70;;;2.00;;
60880;SDS011;46729;43.010;24.320;2022-07-19T00:50:48;4.95;;;1.98;;
60880;SDS011;46729;43.010;24.320;2022-07-19T00:53:14;4.18;;;2.05;;
60880;SDS011;46729;43.010;24.320;2022-07-19T00:55:41;3.05;;;1.95;;
60880;SDS011;46729;43.010;24.320;2022-07-19T00:58:08;4.20;;;2.10;;
60880;SDS011;46729;43.010;24.320;2022-07-19T01:00:36;3.10;;;2.15;;
60880;SDS011;46729;43.010;24.320;2022-07-19T01:03:04;5.28;;;1.80;;
60880;SDS011;46729;43.010;24.320;2022-07-19T01:05:31;4.93;;;1.88;;
60880;SDS011;46729;43.010;24.320;2022-07-19T01:07:56;2.17;;;1.90;;
60880;SDS011;46729;43.010;24.320;2022-07-19T01:10:22;10.07;;;2.20;;
60880;SDS011;46729;43.010;24.320;2022-07-19T01:12:48;3.03;;;1.95;;
60880;SDS011;46729;43.010;24.320;2022-07-19T01:15:21;3.47;;;1.80;;
60880;SDS011;46729;43.010;24.320;2022-07-19T01:17:50;4.38;;;1.80;;
60880;SDS011;46729;43.010;24.320;2022-07-19T01:20:16;2.40;;;1.70;;
60880;SDS011;46729;43.010;24.320;2022-07-19T01:22:42;3.42;;;1.63;;
60880;SDS011;46729;43.010;24.320;2022-07-19T01:25:09;2.45;;;1.77;;
60880;SDS011;46729;43.010;24.320;2022-07-19T01:27:46;4.28;;;2.20;;
60880;SDS011;46729;43.010;24.320;2022-07-19T01:30:14;4.82;;;1.90;;
60880;SDS011;46729;43.010;24.320;2022-07-19T01:32:42;6.43;;;1.75;;
60880;SDS011;46729;43.010;24.320;2022-07-19T01:35:08;3.42;;;1.65;;
60880;SDS011;46729;43.010;24.320;2022-07-19T01:37:34;4.30;;;1.77;;
60880;SDS011;46729;43.010;24.320;2022-07-19T01:40:01;2.58;;;1.75;;
60880;SDS011;46729;43.010;24.320;2022-07-19T01:42:30;2.93;;;1.87;;
60880;SDS011;46729;43.010;24.320;2022-07-19T01:44:56;4.80;;;2.15;;
60880;SDS011;46729;43.010;24.320;2022-07-19T01:47:22;5.65;;;2.22;;
60880;SDS011;46729;43.010;24.320;2022-07-19T01:49:48;4.57;;;1.88;;
60880;SDS011;46729;43.010;24.320;2022-07-19T01:52:14;3.75;;;2.00;;
60880;SDS011;46729;43.010;24.320;2022-07-19T01:54:39;6.32;;;1.85;;
60880;SDS011;46729;43.010;24.320;2022-07-19T01:57:05;5.50;;;2.10;;
60880;SDS011;46729;43.010;24.320;2022-07-19T01:59:30;2.42;;;1.60;;
60880;SDS011;46729;43.010;24.320;2022-07-19T02:01:56;7.75;;;2.15;;
60880;SDS011;46729;43.010;24.320;2022-07-19T02:04:21;2.97;;;1.77;;
60880;SDS011;46729;43.010;24.320;2022-07-19T02:06:47;6.32;;;2.17;;
60880;SDS011;46729;43.010;24.320;2022-07-19T02:09:12;4.05;;;2.08;;
60880;SDS011;46729;43.010;24.320;2022-07-19T02:11:38;5.00;;;1.88;;
60880;SDS011;46729;43.010;24.320;2022-07-19T02:14:04;3.38;;;2.13;;
60880;SDS011;46729;43.010;24.320;2022-07-19T02:16:31;4.22;;;1.90;;
60880;SDS011;46729;43.010;24.320;2022-07-19T02:18:57;5.88;;;2.22;;
60880;SDS011;46729;43.010;24.320;2022-07-19T02:21:23;2.78;;;1.95;;
60880;SDS011;46729;43.010;24.320;2022-07-19T02:23:48;3.42;;;1.80;;
60880;SDS011;46729;43.010;24.320;2022-07-19T02:26:14;2.92;;;1.80;;
60880;SDS011;46729;43.010;24.320;2022-07-19T02:28:39;3.38;;;2.15;;
60880;SDS011;46729;43.010;24.320;2022-07-19T02:31:05;6.45;;;1.83;;
60880;SDS011;46729;43.010;24.320;2022-07-19T02:33:30;2.05;;;1.73;;
60880;SDS011;46729;43.010;24.320;2022-07-19T02:35:56;3.25;;;1.55;;
60880;SDS011;46729;43.010;24.320;2022-07-19T02:38:22;2.22;;;1.98;;
60880;SDS011;46729;43.010;24.320;2022-07-19T02:40:47;3.20;;;1.70;;
60880;SDS011;46729;43.010;24.320;2022-07-19T02:43:13;1.95;;;1.77;;
60880;SDS011;46729;43.010;24.320;2022-07-19T02:45:39;2.20;;;1.75;;
60880;SDS011;46729;43.010;24.320;2022-07-19T02:48:05;3.40;;;1.30;;
60880;SDS011;46729;43.010;24.320;2022-07-19T02:50:31;3.92;;;1.90;;
60880;SDS011;46729;43.010;24.320;2022-07-19T02:52:57;4.75;;;2.03;;
60880;SDS011;46729;43.010;24.320;2022-07-19T02:55:23;1.90;;;1.50;;
60880;SDS011;46729;43.010;24.320;2022-07-19T02:57:48;3.08;;;2.03;;
60880;SDS011;46729;43.010;24.320;2022-07-19T03:00:14;4.57;;;1.92;;
60880;SDS011;46729;43.010;24.320;2022-07-19T03:02:40;3.10;;;1.70;;
60880;SDS011;46729;43.010;24.320;2022-07-19T03:05:05;2.42;;;1.80;;
60880;SDS011;46729;43.010;24.320;2022-07-19T03:07:32;3.30;;;1.60;;
60880;SDS011;46729;43.010;24.320;2022-07-19T03:09:58;3.95;;;1.63;;
60880;SDS011;46729;43.010;24.320;2022-07-19T03:12:23;4.28;;;2.05;;
60880;SDS011;46729;43.010;24.320;2022-07-19T03:14:49;3.28;;;1.98;;
60880;SDS011;46729;43.010;24.320;2022-07-19T03:17:14;3.05;;;1.67;;
60880;SDS011;46729;43.010;24.320;2022-07-19T03:19:40;2.88;;;1.80;;
60880;SDS011;46729;43.010;24.320;2022-07-19T03:22:05;2.55;;;1.60;;
60880;SDS011;46729;43.010;24.320;2022-07-19T03:24:31;5.68;;;1.92;;
60880;SDS011;46729;43.010;24.320;2022-07-19T03:26:57;4.25;;;1.98;;
60880;SDS011;46729;43.010;24.320;2022-07-19T03:29:23;3.83;;;2.17;;
60880;SDS011;46729;43.010;24.320;2022-07-19T03:31:48;2.83;;;2.00;;
60880;SDS011;46729;43.010;24.320;2022-07-19T03:34:14;2.72;;;1.58;;
60880;SDS011;46729;43.010;24.320;2022-07-19T03:36:39;3.00;;;1.95;;
60880;SDS011;46729;43.010;24.320;2022-07-19T03:39:05;3.72;;;1.40;;
60880;SDS011;46729;43.010;24.320;2022-07-19T03:41:31;4.15;;;2.10;;
60880;SDS011;46729;43.010;24.320;2022-07-19T03:43:57;8.80;;;1.92;;
60880;SDS011;46729;43.010;24.320;2022-07-19T03:46:22;6.03;;;1.75;;
60880;SDS011;46729;43.010;24.320;2022-07-19T03:48:48;5.68;;;1.73;;
60880;SDS011;46729;43.010;24.320;2022-07-19T03:51:14;3.70;;;1.83;;
60880;SDS011;46729;43.010;24.320;2022-07-19T03:53:40;2.38;;;1.83;;
60880;SDS011;46729;43.010;24.320;2022-07-19T03:56:05;3.45;;;1.92;;
60880;SDS011;46729;43.010;24.320;2022-07-19T03:58:31;4.60;;;2.47;;
60880;SDS011;46729;43.010;24.320;2022-07-19T04:00:57;5.13;;;2.20;;
60880;SDS011;46729;43.010;24.320;2022-07-19T04:03:23;3.03;;;1.50;;
60880;SDS011;46729;43.010;24.320;2022-07-19T04:05:48;4.22;;;1.73;;
60880;SDS011;46729;43.010;24.320;2022-07-19T04:08:14;4.13;;;1.45;;
60880;SDS011;46729;43.010;24.320;2022-07-19T04:10:40;2.83;;;1.75;;
60880;SDS011;46729;43.010;24.320;2022-07-19T04:13:06;2.97;;;1.70;;
60880;SDS011;46729;43.010;24.320;2022-07-19T04:15:32;5.57;;;1.45;;
60880;SDS011;46729;43.010;24.320;2022-07-19T04:17:58;6.18;;;1.65;;
60880;SDS011;46729;43.010;24.320;2022-07-19T04:20:23;2.60;;;1.80;;
60880;SDS011;46729;43.010;24.320;2022-07-19T04:22:49;5.20;;;1.83;;
60880;SDS011;46729;43.010;24.320;2022-07-19T04:25:15;3.63;;;1.90;;
60880;SDS011;46729;43.010;24.320;2022-07-19T04:27:40;4.60;;;1.75;;
60880;SDS011;46729;43.010;24.320;2022-07-19T04:30:06;3.03;;;1.80;;
60880;SDS011;46729;43.010;24.320;2022-07-19T04:32:32;3.63;;;2.38;;
60880;SDS011;46729;43.010;24.320;2022-07-19T04:34:59;4.20;;;2.22;;
60880;SDS011;46729;43.010;24.320;2022-07-19T04:37:25;3.47;;;1.60;;
60880;SDS011;46729;43.010;24.320;2022-07-19T04:39:50;4.47;;;1.75;;
60880;SDS011;46729;43.010;24.320;2022-07-19T04:42:16;3.88;;;1.80;;
60880;SDS011;46729;43.010;24.320;2022-07-19T04:44:42;2.63;;;2.03;;
60880;SDS011;46729;43.010;24.320;2022-07-19T04:47:08;3.15;;;2.00;;
60880;SDS011;46729;43.010;24.320;2022-07-19T04:49:33;4.10;;;1.83;;
60880;SDS011;46729;43.010;24.320;2022-07-19T04:51:59;2.35;;;1.67;;
60880;SDS011;46729;43.010;24.320;2022-07-19T04:54:25;4.25;;;1.95;;
60880;SDS011;46729;43.010;24.320;2022-07-19T04:56:51;3.08;;;1.70;;
60880;SDS011;46729;43.010;24.320;2022-07-19T04:59:16;4.90;;;1.92;;
60880;SDS011;46729;43.010;24.320;2022-07-19T05:01:42;2.72;;;2.10;;
60880;SDS011;46729;43.010;24.320;2022-07-19T05:04:07;2.50;;;1.85;;
60880;SDS011;46729;43.010;24.320;2022-07-19T05:06:33;2.90;;;1.90;;
60880;SDS011;46729;43.010;24.320;2022-07-19T05:08:58;2.33;;;1.98;;
60880;SDS011;46729;43.010;24.320;2022-07-19T05:11:24;2.72;;;1.52;;
60880;SDS011;46729;43.010;24.320;2022-07-19T05:13:50;3.53;;;1.85;;
60880;SDS011;46729;43.010;24.320;2022-07-19T05:16:15;6.93;;;1.63;;
60880;SDS011;46729;43.010;24.320;2022-07-19T05:18:41;3.03;;;2.05;;
60880;SDS011;46729;43.010;24.320;2022-07-19T05:21:06;2.95;;;1.63;;
60880;SDS011;46729;43.010;24.320;2022-07-19T05:23:32;4.35;;;1.60;;
60880;SDS011;46729;43.010;24.320;2022-07-19T05:25:57;3.08;;;1.77;;
60880;SDS011;46729;43.010;24.320;2022-07-19T05:28:23;5.63;;;1.80;;
60880;SDS011;46729;43.010;24.320;2022-07-19T05:30:49;5.68;;;1.80;;
60880;SDS011;46729;43.010;24.320;2022-07-19T05:33:14;2.72;;;1.60;;
60880;SDS011;46729;43.010;24.320;2022-07-19T05:35:41;2.78;;;1.75;;
60880;SDS011;46729;43.010;24.320;2022-07-19T05:38:07;2.55;;;1.65;;
60880;SDS011;46729;43.010;24.320;2022-07-19T05:40:32;6.07;;;1.77;;
60880;SDS011;46729;43.010;24.320;2022-07-19T05:42:58;1.98;;;1.67;;
60880;SDS011;46729;43.010;24.320;2022-07-19T05:45:24;4.68;;;1.83;;
60880;SDS011;46729;43.010;24.320;2022-07-19T05:47:50;5.53;;;2.03;;
60880;SDS011;46729;43.010;24.320;2022-07-19T05:50:15;3.30;;;1.90;;
60880;SDS011;46729;43.010;24.320;2022-07-19T05:52:41;3.45;;;1.80;;
60880;SDS011;46729;43.010;24.320;2022-07-19T05:55:06;2.30;;;1.80;;
60880;SDS011;46729;43.010;24.320;2022-07-19T05:57:32;3.33;;;1.75;;
60880;SDS011;46729;43.010;24.320;2022-07-19T05:59:58;7.18;;;1.85;;
60880;SDS011;46729;43.010;24.320;2022-07-19T06:02:23;2.55;;;1.50;;
60880;SDS011;46729;43.010;24.320;2022-07-19T06:04:49;2.20;;;1.85;;
60880;SDS011;46729;43.010;24.320;2022-07-19T06:07:14;5.43;;;1.58;;
60880;SDS011;46729;43.010;24.320;2022-07-19T06:09:40;4.45;;;1.98;;
60880;SDS011;46729;43.010;24.320;2022-07-19T06:12:06;2.53;;;1.58;;
60880;SDS011;46729;43.010;24.320;2022-07-19T06:14:31;2.80;;;1.70;;
60880;SDS011;46729;43.010;24.320;2022-07-19T06:16:57;2.10;;;1.60;;
60880;SDS011;46729;43.010;24.320;2022-07-19T06:19:22;3.42;;;1.65;;
60880;SDS011;46729;43.010;24.320;2022-07-19T06:21:48;5.47;;;1.85;;
60880;SDS011;46729;43.010;24.320;2022-07-19T06:24:14;4.05;;;1.35;;
60880;SDS011;46729;43.010;24.320;2022-07-19T06:26:39;3.03;;;1.55;;
60880;SDS011;46729;43.010;24.320;2022-07-19T06:29:05;3.90;;;1.80;;
60880;SDS011;46729;43.010;24.320;2022-07-19T06:31:31;10.13;;;1.85;;
60880;SDS011;46729;43.010;24.320;2022-07-19T06:33:58;4.30;;;1.52;;
60880;SDS011;46729;43.010;24.320;2022-07-19T06:36:24;2.92;;;1.45;;
60880;SDS011;46729;43.010;24.320;2022-07-19T06:38:49;2.58;;;1.52;;
60880;SDS011;46729;43.010;24.320;2022-07-19T06:41:15;2.70;;;1.70;;
60880;SDS011;46729;43.010;24.320;2022-07-19T06:43:41;3.15;;;1.60;;
60880;SDS011;46729;43.010;24.320;2022-07-19T06:46:08;3.25;;;1.60;;
60880;SDS011;46729;43.010;24.320;2022-07-19T06:48:33;2.92;;;1.60;;
60880;SDS011;46729;43.010;24.320;2022-07-19T06:50:59;4.05;;;1.40;;
60880;SDS011;46729;43.010;24.320;2022-07-19T06:53:25;3.75;;;1.60;;
60880;SDS011;46729;43.010;24.320;2022-07-19T06:55:51;5.45;;;2.45;;
60880;SDS011;46729;43.010;24.320;2022-07-19T06:58:16;7.28;;;2.00;;
60880;SDS011;46729;43.010;24.320;2022-07-19T07:00:42;2.83;;;1.35;;
60880;SDS011;46729;43.010;24.320;2022-07-19T07:03:08;3.78;;;1.52;;
60880;SDS011;46729;43.010;24.320;2022-07-19T07:05:34;2.83;;;1.60;;
60880;SDS011;46729;43.010;24.320;2022-07-19T07:08:00;2.22;;;1.60;;
60880;SDS011;46729;43.010;24.320;2022-07-19T07:10:26;2.85;;;2.15;;
60880;SDS011;46729;43.010;24.320;2022-07-19T07:12:51;4.30;;;2.10;;
60880;SDS011;46729;43.010;24.320;2022-07-19T07:15:17;10.02;;;1.80;;
60880;SDS011;46729;43.010;24.320;2022-07-19T07:17:43;4.25;;;1.98;;
60880;SDS011;46729;43.010;24.320;2022-07-19T07:20:09;4.35;;;2.35;;
60880;SDS011;46729;43.010;24.320;2022-07-19T07:22:35;4.78;;;1.83;;
60880;SDS011;46729;43.010;24.320;2022-07-19T07:25:01;5.63;;;2.63;;
60880;SDS011;46729;43.010;24.320;2022-07-19T07:27:27;7.78;;;3.90;;
60880;SDS011;46729;43.010;24.320;2022-07-19T07:29:53;5.38;;;3.35;;
60880;SDS011;46729;43.010;24.320;2022-07-19T07:32:19;10.95;;;3.13;;
60880;SDS011;46729;43.010;24.320;2022-07-19T07:34:45;3.97;;;1.40;;
60880;SDS011;46729;43.010;24.320;2022-07-19T07:37:11;2.10;;;1.30;;
60880;SDS011;46729;43.010;24.320;2022-07-19T07:39:36;4.97;;;1.45;;
60880;SDS011;46729;43.010;24.320;2022-07-19T07:42:03;2.30;;;1.58;;
60880;SDS011;46729;43.010;24.320;2022-07-19T07:44:29;9.82;;;2.22;;
60880;SDS011;46729;43.010;24.320;2022-07-19T07:46:55;3.40;;;1.42;;
60880;SDS011;46729;43.010;24.320;2022-07-19T07:49:21;3.83;;;1.35;;
60880;SDS011;46729;43.010;24.320;2022-07-19T07:51:47;1.90;;;1.10;;
60880;SDS011;46729;43.010;24.320;2022-07-19T07:54:13;9.57;;;2.35;;
60880;SDS011;46729;43.010;24.320;2022-07-19T07:56:39;3.90;;;1.30;;
60880;SDS011;46729;43.010;24.320;2022-07-19T07:59:04;5.47;;;1.50;;
60880;SDS011;46729;43.010;24.320;2022-07-19T08:01:30;5.57;;;1.40;;
60880;SDS011;46729;43.010;24.320;2022-07-19T08:03:56;5.35;;;1.40;;
60880;SDS011;46729;43.010;24.320;2022-07-19T08:06:22;2.78;;;1.50;;
60880;SDS011;46729;43.010;24.320;2022-07-19T08:08:47;2.28;;;1.30;;
60880;SDS011;46729;43.010;24.320;2022-07-19T08:11:13;2.33;;;1.60;;
60880;SDS011;46729;43.010;24.320;2022-07-19T08:13:38;2.10;;;1.35;;
60880;SDS011;46729;43.010;24.320;2022-07-19T08:16:04;4.75;;;1.63;;
60880;SDS011;46729;43.010;24.320;2022-07-19T08:18:31;5.30;;;1.20;;
60880;SDS011;46729;43.010;24.320;2022-07-19T08:20:58;2.35;;;0.98;;
60880;SDS011;46729;43.010;24.320;2022-07-19T08:23:24;4.00;;;0.98;;
60880;SDS011;46729;43.010;24.320;2022-07-19T08:25:49;2.15;;;1.20;;
60880;SDS011;46729;43.010;24.320;2022-07-19T08:28:15;2.28;;;1.33;;
60880;SDS011;46729;43.010;24.320;2022-07-19T08:30:40;10.52;;;1.23;;
60880;SDS011;46729;43.010;24.320;2022-07-19T08:33:06;4.35;;;1.45;;
60880;SDS011;46729;43.010;24.320;2022-07-19T08:35:33;3.00;;;1.52;;
60880;SDS011;46729;43.010;24.320;2022-07-19T08:38:02;3.85;;;0.82;;
60880;SDS011;46729;43.010;24.320;2022-07-19T08:40:28;3.72;;;1.25;;
60880;SDS011;46729;43.010;24.320;2022-07-19T08:42:58;1.77;;;0.95;;
60880;SDS011;46729;43.010;24.320;2022-07-19T08:45:23;10.27;;;1.42;;
60880;SDS011;46729;43.010;24.320;2022-07-19T08:50:20;5.50;;;1.27;;
60880;SDS011;46729;43.010;24.320;2022-07-19T08:52:46;2.72;;;1.42;;
60880;SDS011;46729;43.010;24.320;2022-07-19T08:55:13;3.72;;;1.23;;
60880;SDS011;46729;43.010;24.320;2022-07-19T08:57:39;4.40;;;1.20;;
60880;SDS011;46729;43.010;24.320;2022-07-19T09:00:25;9.77;;;2.53;;
60880;SDS011;46729;43.010;24.320;2022-07-19T09:02:53;5.28;;;1.45;;
60880;SDS011;46729;43.010;24.320;2022-07-19T09:05:20;4.43;;;1.10;;
60880;SDS011;46729;43.010;24.320;2022-07-19T09:07:58;1.50;;;1.00;;
60880;SDS011;46729;43.010;24.320;2022-07-19T09:10:27;5.45;;;1.20;;
60880;SDS011;46729;43.010;24.320;2022-07-19T09:12:59;2.53;;;1.60;;
60880;SDS011;46729;43.010;24.320;2022-07-19T09:15:42;3.78;;;1.45;;
60880;SDS011;46729;43.010;24.320;2022-07-19T09:18:08;3.40;;;1.20;;
60880;SDS011;46729;43.010;24.320;2022-07-19T09:20:37;3.08;;;1.27;;
60880;SDS011;46729;43.010;24.320;2022-07-19T09:23:03;5.05;;;2.17;;
60880;SDS011;46729;43.010;24.320;2022-07-19T09:28:17;2.22;;;1.30;;
60880;SDS011;46729;43.010;24.320;2022-07-19T09:30:44;4.35;;;1.83;;
60880;SDS011;46729;43.010;24.320;2022-07-19T09:33:15;6.50;;;1.30;;
60880;SDS011;46729;43.010;24.320;2022-07-19T09:35:46;5.72;;;1.08;;
60880;SDS011;46729;43.010;24.320;2022-07-19T09:38:20;6.65;;;1.15;;
60880;SDS011;46729;43.010;24.320;2022-07-19T09:40:48;3.80;;;1.40;;
60880;SDS011;46729;43.010;24.320;2022-07-19T09:43:15;2.95;;;1.08;;
60880;SDS011;46729;43.010;24.320;2022-07-19T09:45:42;7.90;;;1.50;;
60880;SDS011;46729;43.010;24.320;2022-07-19T09:48:08;5.38;;;0.90;;
60880;SDS011;46729;43.010;24.320;2022-07-19T09:50:33;2.85;;;1.05;;
60880;SDS011;46729;43.010;24.320;2022-07-19T09:53:03;5.75;;;1.38;;
60880;SDS011;46729;43.010;24.320;2022-07-19T09:55:30;2.95;;;1.20;;
60880;SDS011;46729;43.010;24.320;2022-07-19T09:57:57;4.20;;;1.60;;
60880;SDS011;46729;43.010;24.320;2022-07-19T10:00:24;4.93;;;1.13;;
60880;SDS011;46729;43.010;24.320;2022-07-19T10:02:53;2.80;;;1.23;;
60880;SDS011;46729;43.010;24.320;2022-07-19T10:05:20;3.58;;;1.20;;
60880;SDS011;46729;43.010;24.320;2022-07-19T10:07:47;2.15;;;0.90;;
60880;SDS011;46729;43.010;24.320;2022-07-19T10:10:14;5.32;;;1.17;;
60880;SDS011;46729;43.010;24.320;2022-07-19T10:12:42;1.67;;;1.10;;
60880;SDS011;46729;43.010;24.320;2022-07-19T10:15:12;4.18;;;1.25;;
60880;SDS011;46729;43.010;24.320;2022-07-19T10:17:39;5.35;;;1.58;;
60880;SDS011;46729;43.010;24.320;2022-07-19T10:20:16;1.65;;;1.30;;
60880;SDS011;46729;43.010;24.320;2022-07-19T10:22:45;2.67;;;1.23;;
60880;SDS011;46729;43.010;24.320;2022-07-19T10:25:14;2.78;;;1.52;;
60880;SDS011;46729;43.010;24.320;2022-07-19T10:27:46;3.80;;;1.02;;
60880;SDS011;46729;43.010;24.320;2022-07-19T10:30:21;4.55;;;1.25;;
60880;SDS011;46729;43.010;24.320;2022-07-19T10:32:50;2.10;;;1.10;;
60880;SDS011;46729;43.010;24.320;2022-07-19T10:43:13;5.15;;;1.38;;
60880;SDS011;46729;43.010;24.320;2022-07-19T10:45:44;1.38;;;1.17;;
60880;SDS011;46729;43.010;24.320;2022-07-19T10:48:35;3.20;;;1.20;;
60880;SDS011;46729;43.010;24.320;2022-07-19T10:51:26;2.50;;;1.08;;
60880;SDS011;46729;43.010;24.320;2022-07-19T10:53:54;2.55;;;1.17;;
60880;SDS011;46729;43.010;24.320;2022-07-19T10:59:13;2.67;;;1.20;;
60880;SDS011;46729;43.010;24.320;2022-07-19T11:01:52;5.53;;;1.15;;
60880;SDS011;46729;43.010;24.320;2022-07-19T11:09:44;2.28;;;1.20;;
60880;SDS011;46729;43.010;24.320;2022-07-19T11:12:18;5.13;;;1.30;;
60880;SDS011;46729;43.010;24.320;2022-07-19T11:14:55;5.68;;;1.63;;
60880;SDS011;46729;43.010;24.320;2022-07-19T11:17:22;5.90;;;1.23;;
60880;SDS011;46729;43.010;24.320;2022-07-19T11:19:58;4.53;;;1.00;;
60880;SDS011;46729;43.010;24.320;2022-07-19T11:22:34;2.75;;;1.30;;
60880;SDS011;46729;43.010;24.320;2022-07-19T11:25:08;5.60;;;1.33;;
60880;SDS011;46729;43.010;24.320;2022-07-19T11:27:35;13.32;;;1.08;;
60880;SDS011;46729;43.010;24.320;2022-07-19T11:30:02;3.95;;;1.08;;
60880;SDS011;46729;43.010;24.320;2022-07-19T11:32:30;3.28;;;1.08;;
60880;SDS011;46729;43.010;24.320;2022-07-19T11:34:57;1.42;;;0.98;;
60880;SDS011;46729;43.010;24.320;2022-07-19T11:37:31;1.55;;;1.05;;
60880;SDS011;46729;43.010;24.320;2022-07-19T11:39:58;5.53;;;1.05;;
60880;SDS011;46729;43.010;24.320;2022-07-19T11:42:40;3.38;;;1.30;;
60880;SDS011;46729;43.010;24.320;2022-07-19T11:45:18;5.25;;;1.45;;
60880;SDS011;46729;43.010;24.320;2022-07-19T11:47:46;2.55;;;1.30;;
60880;SDS011;46729;43.010;24.320;2022-07-19T11:50:14;2.25;;;1.00;;
60880;SDS011;46729;43.010;24.320;2022-07-19T11:52:50;3.25;;;1.30;;
60880;SDS011;46729;43.010;24.320;2022-07-19T11:55:21;2.15;;;1.20;;
60880;SDS011;46729;43.010;24.320;2022-07-19T11:57:50;1.30;;;1.08;;
60880;SDS011;46729;43.010;24.320;2022-07-19T12:00:17;3.10;;;1.42;;
60880;SDS011;46729;43.010;24.320;2022-07-19T12:02:50;3.00;;;1.15;;
60880;SDS011;46729;43.010;24.320;2022-07-19T12:07:52;2.53;;;1.40;;
60880;SDS011;46729;43.010;24.320;2022-07-19T12:13:04;3.63;;;1.10;;
60880;SDS011;46729;43.010;24.320;2022-07-19T12:15:51;2.42;;;1.25;;
60880;SDS011;46729;43.010;24.320;2022-07-19T12:26:35;3.13;;;1.08;;
60880;SDS011;46729;43.010;24.320;2022-07-19T12:29:15;4.95;;;1.25;;
60880;SDS011;46729;43.010;24.320;2022-07-19T12:31:48;1.33;;;0.90;;
60880;SDS011;46729;43.010;24.320;2022-07-19T12:34:15;6.07;;;1.02;;
60880;SDS011;46729;43.010;24.320;2022-07-19T12:36:42;2.08;;;0.85;;
60880;SDS011;46729;43.010;24.320;2022-07-19T12:39:17;3.28;;;1.42;;
60880;SDS011;46729;43.010;24.320;2022-07-19T12:41:54;4.25;;;1.10;;
60880;SDS011;46729;43.010;24.320;2022-07-19T12:44:21;5.82;;;1.55;;
60880;SDS011;46729;43.010;24.320;2022-07-19T12:46:46;2.95;;;1.15;;
60880;SDS011;46729;43.010;24.320;2022-07-19T12:49:12;4.75;;;1.17;;
60880;SDS011;46729;43.010;24.320;2022-07-19T12:51:38;5.40;;;1.10;;
60880;SDS011;46729;43.010;24.320;2022-07-19T12:54:07;3.47;;;1.10;;
60880;SDS011;46729;43.010;24.320;2022-07-19T12:56:33;1.70;;;1.00;;
60880;SDS011;46729;43.010;24.320;2022-07-19T12:58:59;2.85;;;1.20;;
60880;SDS011;46729;43.010;24.320;2022-07-19T13:01:43;4.10;;;1.20;;
60880;SDS011;46729;43.010;24.320;2022-07-19T13:04:08;1.75;;;1.08;;
60880;SDS011;46729;43.010;24.320;2022-07-19T13:06:34;1.35;;;0.90;;
60880;SDS011;46729;43.010;24.320;2022-07-19T13:08:59;3.97;;;1.30;;
60880;SDS011;46729;43.010;24.320;2022-07-19T13:11:25;3.00;;;1.00;;
60880;SDS011;46729;43.010;24.320;2022-07-19T13:13:52;1.60;;;1.00;;
60880;SDS011;46729;43.010;24.320;2022-07-19T13:16:17;4.75;;;1.13;;
60880;SDS011;46729;43.010;24.320;2022-07-19T13:18:43;1.30;;;1.02;;
60880;SDS011;46729;43.010;24.320;2022-07-19T13:21:09;2.75;;;1.23;;
60880;SDS011;46729;43.010;24.320;2022-07-19T13:23:34;1.73;;;1.30;;
60880;SDS011;46729;43.010;24.320;2022-07-19T13:26:00;4.68;;;1.48;;
60880;SDS011;46729;43.010;24.320;2022-07-19T13:28:25;3.97;;;1.25;;
60880;SDS011;46729;43.010;24.320;2022-07-19T13:30:51;2.13;;;1.08;;
60880;SDS011;46729;43.010;24.320;2022-07-19T13:33:17;4.15;;;1.02;;
60880;SDS011;46729;43.010;24.320;2022-07-19T13:35:42;4.07;;;1.30;;
60880;SDS011;46729;43.010;24.320;2022-07-19T13:38:08;2.47;;;1.20;;
60880;SDS011;46729;43.010;24.320;2022-07-19T13:40:33;1.75;;;1.02;;
60880;SDS011;46729;43.010;24.320;2022-07-19T13:42:59;4.85;;;1.48;;
60880;SDS011;46729;43.010;24.320;2022-07-19T13:45:25;4.50;;;1.20;;
60880;SDS011;46729;43.010;24.320;2022-07-19T13:47:50;3.85;;;1.30;;
60880;SDS011;46729;43.010;24.320;2022-07-19T13:50:16;1.98;;;1.20;;
60880;SDS011;46729;43.010;24.320;2022-07-19T13:52:41;2.05;;;1.13;;
60880;SDS011;46729;43.010;24.320;2022-07-19T13:55:07;2.83;;;1.20;;
60880;SDS011;46729;43.010;24.320;2022-07-19T13:57:33;4.93;;;1.50;;
60880;SDS011;46729;43.010;24.320;2022-07-19T13:59:59;3.10;;;1.08;;
60880;SDS011;46729;43.010;24.320;2022-07-19T14:02:24;6.50;;;1.20;;
60880;SDS011;46729;43.010;24.320;2022-07-19T14:04:50;1.83;;;1.13;;
60880;SDS011;46729;43.010;24.320;2022-07-19T14:07:16;4.38;;;1.10;;
60880;SDS011;46729;43.010;24.320;2022-07-19T14:09:41;2.13;;;1.17;;
60880;SDS011;46729;43.010;24.320;2022-07-19T14:12:07;2.97;;;1.00;;
60880;SDS011;46729;43.010;24.320;2022-07-19T14:14:32;4.00;;;1.10;;
60880;SDS011;46729;43.010;24.320;2022-07-19T14:16:58;1.70;;;1.15;;
60880;SDS011;46729;43.010;24.320;2022-07-19T14:19:24;4.20;;;0.98;;
60880;SDS011;46729;43.010;24.320;2022-07-19T14:21:49;5.18;;;1.23;;
60880;SDS011;46729;43.010;24.320;2022-07-19T14:24:15;1.85;;;1.38;;
60880;SDS011;46729;43.010;24.320;2022-07-19T14:26:40;4.70;;;1.10;;
60880;SDS011;46729;43.010;24.320;2022-07-19T14:29:06;4.88;;;1.10;;
60880;SDS011;46729;43.010;24.320;2022-07-19T14:31:31;5.22;;;1.25;;
60880;SDS011;46729;43.010;24.320;2022-07-19T14:33:57;3.13;;;1.20;;
60880;SDS011;46729;43.010;24.320;2022-07-19T14:36:23;1.80;;;1.10;;
60880;SDS011;46729;43.010;24.320;2022-07-19T14:38:48;5.85;;;1.23;;
60880;SDS011;46729;43.010;24.320;2022-07-19T14:41:14;6.47;;;1.30;;
60880;SDS011;46729;43.010;24.320;2022-07-19T14:43:39;5.47;;;1.20;;
60880;SDS011;46729;43.010;24.320;2022-07-19T14:46:05;2.45;;;0.90;;
60880;SDS011;46729;43.010;24.320;2022-07-19T14:48:32;1.67;;;1.02;;
60880;SDS011;46729;43.010;24.320;2022-07-19T14:50:57;2.55;;;1.40;;
60880;SDS011;46729;43.010;24.320;2022-07-19T14:53:23;1.33;;;1.15;;
60880;SDS011;46729;43.010;24.320;2022-07-19T14:55:48;2.33;;;1.42;;
60880;SDS011;46729;43.010;24.320;2022-07-19T14:58:14;1.45;;;1.20;;
60880;SDS011;46729;43.010;24.320;2022-07-19T15:00:39;2.42;;;1.30;;
60880;SDS011;46729;43.010;24.320;2022-07-19T15:03:05;4.55;;;1.38;;
60880;SDS011;46729;43.010;24.320;2022-07-19T15:05:32;3.28;;;1.30;;
60880;SDS011;46729;43.010;24.320;2022-07-19T15:07:57;3.92;;;1.08;;